createdAt,value
2023-01-29T00:02:10.897Z,102684.19
2023-01-29T00:04:37.833Z,102669.13
2023-01-29T00:07:04.766Z,102670.88
2023-01-29T00:09:32.094Z,102658.41
2023-01-29T00:12:01.307Z,102658.38
2023-01-29T00:14:28.460Z,102663.66
2023-01-29T00:16:55.524Z,102662.72
2023-01-29T00:19:22.419Z,102655.63
2023-01-29T00:21:49.370Z,102653.78
2023-01-29T00:24:16.374Z,102649.34
2023-01-29T00:26:43.302Z,102644.88
2023-01-29T00:29:10.230Z,102647.50
2023-01-29T00:31:37.222Z,102637.75
2023-01-29T00:34:04.166Z,102643.94
2023-01-29T00:36:31.051Z,102646.56
2023-01-29T00:39:02.754Z,102642.16
2023-01-29T00:41:51.473Z,102639.53
2023-01-29T00:44:37.120Z,102641.28
2023-01-29T00:47:25.620Z,102618.28
2023-01-29T00:49:52.453Z,102619.16
2023-01-29T00:52:25.123Z,102625.31
2023-01-29T00:54:52.939Z,102610.28
2023-01-29T00:57:21.533Z,102605.03
2023-01-29T00:59:48.729Z,102605.91
2023-01-29T01:02:35.716Z,102608.53
2023-01-29T01:05:07.633Z,102604.09
2023-01-29T01:07:35.182Z,102615.53
2023-01-29T01:10:20.456Z,102613.75
2023-01-29T01:13:00.380Z,102610.22
2023-01-29T01:15:39.259Z,102619.03
2023-01-29T01:18:06.660Z,102608.44
2023-01-29T01:20:36.147Z,102604.94
2023-01-29T01:23:04.611Z,102613.78
2023-01-29T01:25:31.510Z,102615.53
2023-01-29T01:28:03.003Z,102621.69
2023-01-29T01:30:29.970Z,102609.34
2023-01-29T01:32:56.848Z,102614.63
2023-01-29T01:35:23.789Z,102618.22
2023-01-29T01:37:50.776Z,102617.31
2023-01-29T01:40:21.307Z,102617.31
2023-01-29T01:42:50.908Z,102612.03
2023-01-29T01:45:36.337Z,102610.28
2023-01-29T01:48:14.758Z,102617.34
2023-01-29T01:51:06.413Z,102612.03
2023-01-29T01:53:43.439Z,102620.91
2023-01-29T01:56:18.478Z,102620.97
2023-01-29T01:58:59.436Z,102618.34
2023-01-29T02:01:30.731Z,102615.75
2023-01-29T02:04:24.582Z,102617.53
2023-01-29T02:07:12.820Z,102627.28
2023-01-29T02:09:49.105Z,102633.50
2023-01-29T02:12:17.234Z,102631.75
2023-01-29T02:14:44.948Z,102632.66
2023-01-29T02:17:16.191Z,102634.47
2023-01-29T02:20:20.828Z,102637.13
2023-01-29T02:23:23.352Z,102637.16
2023-01-29T02:26:56.696Z,102640.75
2023-01-29T02:29:42.626Z,102639.06
2023-01-29T02:32:42.163Z,102643.53
2023-01-29T02:35:32.241Z,102639.13
2023-01-29T02:38:13.096Z,102637.38
2023-01-29T02:40:58.366Z,102635.63
2023-01-29T02:44:17.317Z,102631.22
2023-01-29T02:46:57.039Z,102622.41
2023-01-29T02:49:37.523Z,102632.16
2023-01-29T02:52:43.260Z,102631.31
2023-01-29T02:55:21.983Z,102628.69
2023-01-29T02:57:58.016Z,102617.22
2023-01-29T03:00:36.896Z,102621.59
2023-01-29T03:03:30.208Z,102618.06
2023-01-29T03:06:08.820Z,102622.50
2023-01-29T03:08:45.683Z,102620.72
2023-01-29T03:11:17.627Z,102626.88
2023-01-29T03:14:24.433Z,102622.50
2023-01-29T03:16:54.444Z,102625.16
2023-01-29T03:19:36.243Z,102624.25
2023-01-29T03:22:13.567Z,102626.91
2023-01-29T03:25:23.363Z,102622.50
2023-01-29T03:28:20.852Z,102624.25
2023-01-29T03:31:11.285Z,102627.75
2023-01-29T03:34:01.996Z,102625.09
2023-01-29T03:36:55.821Z,102623.38
2023-01-29T03:39:28.424Z,102612.78
2023-01-29T03:42:37.977Z,102612.81
2023-01-29T03:45:57.064Z,102610.09
2023-01-29T03:48:49.679Z,102604.78
2023-01-29T03:51:35.331Z,102602.19
2023-01-29T03:54:53.699Z,102602.22
2023-01-29T03:57:35.675Z,102604.00
2023-01-29T04:00:21.201Z,102590.75
2023-01-29T04:03:26.443Z,102588.06
2023-01-29T04:06:09.897Z,102581.00
2023-01-29T04:09:14.638Z,102575.66
2023-01-29T04:12:09.350Z,102580.09
2023-01-29T04:14:40.021Z,102578.31
2023-01-29T04:17:16.451Z,102571.22
2023-01-29T04:19:54.532Z,102573.00
2023-01-29T04:22:31.299Z,102576.56
2023-01-29T04:25:09.442Z,102573.88
2023-01-29T04:28:02.536Z,102567.69
2023-01-29T04:30:56.433Z,102565.91
2023-01-29T04:33:50.574Z,102566.78
2023-01-29T04:36:26.855Z,102572.09
2023-01-29T04:39:11.012Z,102549.97
2023-01-29T04:42:32.699Z,102546.41
2023-01-29T04:45:02.218Z,102543.75
2023-01-29T04:47:57.393Z,102531.41
2023-01-29T04:50:35.278Z,102526.97
2023-01-29T04:54:00.321Z,102527.84
2023-01-29T04:56:49.203Z,102512.84
2023-01-29T04:59:42.028Z,102521.66
2023-01-29T05:02:12.733Z,102520.78
2023-01-29T05:04:44.619Z,102520.81
2023-01-29T05:07:15.997Z,102536.75
2023-01-29T05:09:46.468Z,102524.34
2023-01-29T05:12:16.611Z,102526.13
2023-01-29T05:14:46.698Z,102516.41
2023-01-29T05:17:20.630Z,102515.56
2023-01-29T05:19:48.604Z,102512.00
2023-01-29T05:22:18.686Z,102497.84
2023-01-29T05:24:46.586Z,102501.38
2023-01-29T05:27:41.443Z,102507.59
2023-01-29T05:30:10.519Z,102496.06
2023-01-29T05:32:37.403Z,102498.75
2023-01-29T05:35:04.668Z,102498.75
2023-01-29T05:37:31.603Z,102497.88
2023-01-29T05:39:58.504Z,102506.72
2023-01-29T05:42:25.409Z,102497.00
2023-01-29T05:44:52.631Z,102500.53
2023-01-29T05:47:21.194Z,102508.53
2023-01-29T05:49:48.033Z,102512.06
2023-01-29T05:52:14.858Z,102515.59
2023-01-29T05:54:41.756Z,102512.06
2023-01-29T05:57:08.662Z,102521.81
2023-01-29T05:59:35.538Z,102519.16
2023-01-29T06:02:02.497Z,102534.22
2023-01-29T06:04:29.333Z,102528.91
2023-01-29T06:06:57.035Z,102529.78
2023-01-29T06:09:23.856Z,102531.56
2023-01-29T06:11:50.651Z,102532.44
2023-01-29T06:14:17.531Z,102542.16
2023-01-29T06:16:44.355Z,102543.97
2023-01-29T06:19:11.220Z,102546.59
2023-01-29T06:21:38.143Z,102547.50
2023-01-29T06:24:05.889Z,102532.44
2023-01-29T06:26:32.868Z,102527.13
2023-01-29T06:28:59.819Z,102517.38
2023-01-29T06:31:38.544Z,102508.53
2023-01-29T06:34:07.811Z,102499.63
2023-01-29T06:36:35.201Z,102492.56
2023-01-29T06:39:02.223Z,102506.72
2023-01-29T06:41:29.084Z,102501.44
2023-01-29T06:43:55.955Z,102510.28
2023-01-29T06:46:22.802Z,102504.97
2023-01-29T06:48:49.848Z,102497.00
2023-01-29T06:51:16.879Z,102504.97
2023-01-29T06:53:46.081Z,102506.75
2023-01-29T06:56:13.971Z,102494.31
2023-01-29T06:58:41.419Z,102492.56
2023-01-29T07:01:19.702Z,102496.13
2023-01-29T07:03:56.069Z,102493.44
2023-01-29T07:06:29.219Z,102489.00
2023-01-29T07:08:56.500Z,102497.88
2023-01-29T07:11:23.460Z,102500.53
2023-01-29T07:13:50.301Z,102517.38
2023-01-29T07:16:17.937Z,102517.38
2023-01-29T07:18:45.121Z,102520.00
2023-01-29T07:21:12.029Z,102517.38
2023-01-29T07:23:38.927Z,102510.25
2023-01-29T07:26:06.972Z,102510.25
2023-01-29T07:28:40.143Z,102502.28
2023-01-29T07:31:08.868Z,102490.75
2023-01-29T07:33:35.699Z,102499.63
2023-01-29T07:36:02.854Z,102490.75
2023-01-29T07:38:29.714Z,102492.53
2023-01-29T07:40:56.801Z,102494.31
2023-01-29T07:43:25.116Z,102492.53
2023-01-29T07:45:53.044Z,102508.47
2023-01-29T07:48:19.988Z,102504.06
2023-01-29T07:50:55.812Z,102490.75
2023-01-29T07:53:23.566Z,102492.53
2023-01-29T07:55:51.064Z,102492.53
2023-01-29T07:58:17.926Z,102492.53
2023-01-29T08:00:45.743Z,102492.53
2023-01-29T08:03:17.185Z,102486.31
2023-01-29T08:05:45.175Z,102494.28
2023-01-29T08:08:12.772Z,102489.84
2023-01-29T08:10:40.669Z,102496.94
2023-01-29T08:13:08.978Z,102501.38
2023-01-29T08:15:38.783Z,102497.81
2023-01-29T08:18:06.405Z,102490.69
2023-01-29T08:20:33.480Z,102493.38
2023-01-29T08:23:08.580Z,102479.19
2023-01-29T08:25:36.396Z,102475.66
2023-01-29T08:28:04.538Z,102463.22
2023-01-29T08:30:34.275Z,102454.38
2023-01-29T08:33:03.413Z,102445.47
2023-01-29T08:35:30.446Z,102448.13
2023-01-29T08:38:02.387Z,102448.16
2023-01-29T08:40:36.548Z,102444.63
2023-01-29T08:43:08.717Z,102447.28
2023-01-29T08:45:40.971Z,102432.22
2023-01-29T08:48:09.094Z,102447.28
2023-01-29T08:50:37.253Z,102447.28
2023-01-29T08:53:07.988Z,102447.25
2023-01-29T08:55:40.749Z,102449.94
2023-01-29T08:58:11.349Z,102451.69
2023-01-29T09:00:39.053Z,102455.22
2023-01-29T09:03:07.862Z,102449.84
2023-01-29T09:05:36.439Z,102433.88
2023-01-29T09:08:04.419Z,102435.66
2023-01-29T09:10:31.880Z,102439.16
2023-01-29T09:12:58.993Z,102437.41
2023-01-29T09:15:26.072Z,102429.44
2023-01-29T09:17:53.226Z,102430.31
2023-01-29T09:20:20.706Z,102432.06
2023-01-29T09:22:48.041Z,102428.47
2023-01-29T09:25:15.619Z,102435.53
2023-01-29T09:27:42.844Z,102429.34
2023-01-29T09:30:10.743Z,102423.09
2023-01-29T09:32:53.083Z,102426.63
2023-01-29T09:35:22.929Z,102422.19
2023-01-29T09:37:51.776Z,102433.69
2023-01-29T09:41:12.913Z,102432.81
2023-01-29T09:44:04.834Z,102429.22
2023-01-29T09:46:43.576Z,102434.53
2023-01-29T09:49:35.725Z,102444.28
2023-01-29T09:52:11.367Z,102438.03
2023-01-29T09:54:51.036Z,102431.78
2023-01-29T09:57:45.692Z,102435.31
2023-01-29T10:00:25.279Z,102432.63
2023-01-29T10:03:10.730Z,102436.16
2023-01-29T10:05:49.512Z,102429.91
2023-01-29T10:08:40.356Z,102430.78
2023-01-29T10:11:18.930Z,102424.50
2023-01-29T10:14:04.553Z,102428.03
2023-01-29T10:16:37.379Z,102413.78
2023-01-29T10:19:42.636Z,102421.75
2023-01-29T10:22:21.548Z,102420.81
2023-01-29T10:24:57.577Z,102425.22
2023-01-29T10:27:33.782Z,102424.31
2023-01-29T10:30:06.891Z,102426.06
2023-01-29T10:32:37.557Z,102418.97
2023-01-29T10:35:23.570Z,102424.34
2023-01-29T10:37:54.585Z,102425.22
2023-01-29T10:40:44.792Z,102433.22
2023-01-29T10:43:19.722Z,102427.88
2023-01-29T10:45:57.706Z,102422.56
2023-01-29T10:48:56.131Z,102413.66
2023-01-29T10:51:35.134Z,102412.78
2023-01-29T10:55:03.201Z,102404.75
2023-01-29T10:58:18.006Z,102390.53
2023-01-29T11:00:45.723Z,102383.41
2023-01-29T11:03:28.622Z,102384.25
2023-01-29T11:06:27.035Z,102381.50
2023-01-29T11:09:06.544Z,102367.22
2023-01-29T11:11:54.532Z,102360.06
2023-01-29T11:14:54.788Z,102354.69
2023-01-29T11:17:26.090Z,102348.44
2023-01-29T11:19:55.761Z,102340.41
2023-01-29T11:22:29.099Z,102338.59
2023-01-29T11:25:20.959Z,102342.13
2023-01-29T11:27:57.272Z,102332.31
2023-01-29T11:30:30.584Z,102331.44
2023-01-29T11:33:08.050Z,102322.53
2023-01-29T11:35:36.710Z,102315.34
2023-01-29T11:38:19.643Z,102312.59
2023-01-29T11:40:48.066Z,102307.19
2023-01-29T11:43:21.253Z,102301.78
2023-01-29T11:45:58.917Z,102306.25
2023-01-29T11:48:39.685Z,102300.91
2023-01-29T11:51:08.294Z,102287.53
2023-01-29T11:53:49.605Z,102283.91
2023-01-29T11:56:22.450Z,102275.88
2023-01-29T11:58:53.313Z,102274.94
2023-01-29T12:01:38.502Z,102270.53
2023-01-29T12:04:22.427Z,102271.44
2023-01-29T12:06:53.462Z,102267.91
2023-01-29T12:09:27.353Z,102267.03
2023-01-29T12:11:54.929Z,102262.56
2023-01-29T12:14:33.405Z,102261.66
2023-01-29T12:17:16.306Z,102263.41
2023-01-29T12:19:56.949Z,102246.53
2023-01-29T12:22:43.094Z,102257.22
2023-01-29T12:25:31.550Z,102236.81
2023-01-29T12:28:24.665Z,102235.03
2023-01-29T12:31:13.101Z,102233.25
2023-01-29T12:34:39.208Z,102222.53
2023-01-29T12:37:16.895Z,102211.00
2023-01-29T12:39:44.094Z,102212.75
2023-01-29T12:42:20.780Z,102214.56
2023-01-29T12:44:56.666Z,102208.34
2023-01-29T12:47:41.873Z,102202.06
2023-01-29T12:50:32.649Z,102200.31
2023-01-29T12:53:35.062Z,102190.56
2023-01-29T12:56:43.753Z,102184.31
2023-01-29T12:59:24.773Z,102184.25
2023-01-29T13:01:59.711Z,102185.06
2023-01-29T13:04:42.361Z,102186.81
2023-01-29T13:07:30.665Z,102181.41
2023-01-29T13:10:15.958Z,102162.66
2023-01-29T13:13:05.499Z,102174.25
2023-01-29T13:15:40.746Z,102174.22
2023-01-29T13:18:37.605Z,102162.66
2023-01-29T13:21:05.795Z,102145.69
2023-01-29T13:23:39.404Z,102147.50
2023-01-29T13:26:06.878Z,102142.19
2023-01-29T13:28:33.952Z,102142.22
2023-01-29T13:31:24.907Z,102131.63
2023-01-29T13:34:28.588Z,102141.44
2023-01-29T13:37:01.590Z,102121.84
2023-01-29T13:39:38.016Z,102128.09
2023-01-29T13:42:20.693Z,102119.16
2023-01-29T13:44:51.331Z,102119.16
2023-01-29T13:47:31.850Z,102118.22
2023-01-29T13:50:04.443Z,102105.78
2023-01-29T13:52:45.119Z,102110.19
2023-01-29T13:55:31.238Z,102106.66
2023-01-29T13:58:01.367Z,102101.41
2023-01-29T14:00:34.361Z,102104.97
2023-01-29T14:03:01.230Z,102104.97
2023-01-29T14:05:31.208Z,102107.63
2023-01-29T14:08:13.831Z,102105.88
2023-01-29T14:10:43.671Z,102102.34
2023-01-29T14:13:19.414Z,102106.78
2023-01-29T14:15:59.370Z,102081.84
2023-01-29T14:18:29.281Z,102073.81
2023-01-29T14:21:21.879Z,102082.66
2023-01-29T14:23:58.996Z,102074.66
2023-01-29T14:26:34.830Z,102075.50
2023-01-29T14:29:14.444Z,102069.25
2023-01-29T14:31:55.312Z,102072.81
2023-01-29T14:34:33.910Z,102062.16
2023-01-29T14:37:28.185Z,102076.34
2023-01-29T14:39:59.925Z,102060.28
2023-01-29T14:42:37.056Z,102057.59
2023-01-29T14:45:28.637Z,102054.91
2023-01-29T14:47:57.232Z,102055.69
2023-01-29T14:50:32.826Z,102052.94
2023-01-29T14:53:12.914Z,102053.78
2023-01-29T14:55:48.523Z,102052.91
2023-01-29T14:58:28.071Z,102055.53
2023-01-29T15:01:01.940Z,102043.13
2023-01-29T15:03:50.409Z,102038.69
2023-01-29T15:06:30.562Z,102040.44
2023-01-29T15:09:48.464Z,102045.78
2023-01-29T15:12:50.794Z,102044.00
2023-01-29T15:15:57.974Z,102038.66
2023-01-29T15:18:42.672Z,102043.09
2023-01-29T15:21:18.854Z,102028.06
2023-01-29T15:23:48.874Z,102031.66
2023-01-29T15:26:24.772Z,102027.19
2023-01-29T15:29:04.649Z,102017.41
2023-01-29T15:31:32.594Z,102007.56
2023-01-29T15:34:06.343Z,102026.34
2023-01-29T15:36:33.832Z,102012.13
2023-01-29T15:39:09.474Z,102016.59
2023-01-29T15:41:36.360Z,102008.56
2023-01-29T15:44:03.422Z,102008.53
2023-01-29T15:46:36.870Z,102005.88
2023-01-29T15:49:14.519Z,101999.69
2023-01-29T15:51:42.148Z,101995.25
2023-01-29T15:54:17.114Z,102001.50
2023-01-29T15:56:52.062Z,101981.91
2023-01-29T15:59:30.711Z,101987.22
2023-01-29T16:01:58.129Z,101989.00
2023-01-29T16:04:31.437Z,101980.09
2023-01-29T16:07:00.790Z,101968.50
2023-01-29T16:09:29.480Z,101981.91
2023-01-29T16:11:59.232Z,101972.16
2023-01-29T16:14:28.627Z,101983.72
2023-01-29T16:16:55.699Z,101970.47
2023-01-29T16:19:26.036Z,101972.25
2023-01-29T16:22:08.380Z,101967.78
2023-01-29T16:24:37.311Z,101962.44
2023-01-29T16:27:14.942Z,101965.97
2023-01-29T16:29:41.930Z,101957.97
2023-01-29T16:32:12.361Z,101958.81
2023-01-29T16:34:48.194Z,101957.00
2023-01-29T16:37:28.513Z,101958.81
2023-01-29T16:39:56.583Z,101951.69
2023-01-29T16:42:31.698Z,101955.19
2023-01-29T16:45:24.435Z,101956.09
2023-01-29T16:48:02.558Z,101950.78
2023-01-29T16:50:46.417Z,101951.69
2023-01-29T16:53:24.617Z,101946.34
2023-01-29T16:55:52.872Z,101960.63
2023-01-29T16:58:25.298Z,101945.44
2023-01-29T17:01:02.211Z,101945.47
2023-01-29T17:03:33.866Z,101946.34
2023-01-29T17:06:23.303Z,101945.53
2023-01-29T17:08:51.865Z,101943.81
2023-01-29T17:11:41.763Z,101943.84
2023-01-29T17:14:09.586Z,101951.88
2023-01-29T17:16:50.432Z,101942.97
2023-01-29T17:19:20.824Z,101937.56
2023-01-29T17:21:47.890Z,101935.81
2023-01-29T17:24:14.736Z,101923.31
2023-01-29T17:26:42.301Z,101924.22
2023-01-29T17:29:17.691Z,101934.00
2023-01-29T17:31:44.604Z,101942.03
2023-01-29T17:34:14.801Z,101941.16
2023-01-29T17:36:45.999Z,101931.34
2023-01-29T17:39:22.988Z,101929.63
2023-01-29T17:41:58.557Z,101925.19
2023-01-29T17:44:28.675Z,101927.00
2023-01-29T17:46:55.592Z,101918.16
2023-01-29T17:49:27.959Z,101922.63
2023-01-29T17:51:56.987Z,101916.38
2023-01-29T17:54:25.748Z,101920.00
2023-01-29T17:56:53.963Z,101914.66
2023-01-29T17:59:28.561Z,101911.97
2023-01-29T18:01:55.807Z,101909.31
2023-01-29T18:04:23.323Z,101913.78
2023-01-29T18:06:52.053Z,101903.97
2023-01-29T18:09:21.464Z,101896.88
2023-01-29T18:11:50.895Z,101892.44
2023-01-29T18:14:18.235Z,101898.63
2023-01-29T18:16:46.606Z,101900.38
2023-01-29T18:19:31.013Z,101901.28
2023-01-29T18:21:58.037Z,101895.03
2023-01-29T18:24:26.544Z,101895.03
2023-01-29T18:26:53.841Z,101894.16
2023-01-29T18:29:20.864Z,101893.34
2023-01-29T18:31:50.649Z,101890.81
2023-01-29T18:34:17.609Z,101897.16
2023-01-29T18:36:47.636Z,101882.00
2023-01-29T18:39:16.094Z,101868.63
2023-01-29T18:41:43.019Z,101868.56
2023-01-29T18:44:13.064Z,101866.69
2023-01-29T18:46:40.167Z,101855.06
2023-01-29T18:49:06.991Z,101839.06
2023-01-29T18:51:34.301Z,101834.56
2023-01-29T18:54:01.324Z,101831.94
2023-01-29T18:56:28.442Z,101833.66
2023-01-29T18:58:55.995Z,101842.56
2023-01-29T19:01:24.017Z,101836.34
2023-01-29T19:03:51.024Z,101850.59
2023-01-29T19:06:18.131Z,101826.63
2023-01-29T19:08:45.052Z,101813.31
2023-01-29T19:11:12.673Z,101813.31
2023-01-29T19:13:40.874Z,101806.22
2023-01-29T19:16:10.432Z,101799.13
2023-01-29T19:18:37.676Z,101797.44
2023-01-29T19:21:13.623Z,101787.66
2023-01-29T19:23:42.500Z,101785.91
2023-01-29T19:26:10.733Z,101795.66
2023-01-29T19:28:37.620Z,101774.34
2023-01-29T19:31:04.750Z,101779.66
2023-01-29T19:33:31.774Z,101769.03
2023-01-29T19:35:59.801Z,101776.09
2023-01-29T19:38:27.783Z,101756.50
2023-01-29T19:40:55.388Z,101756.56
2023-01-29T19:43:22.302Z,101753.00
2023-01-29T19:45:51.023Z,101738.75
2023-01-29T19:48:21.326Z,101732.44
2023-01-29T19:51:04.768Z,101726.25
2023-01-29T19:53:31.789Z,101736.91
2023-01-29T19:56:06.300Z,101721.81
2023-01-29T19:58:34.440Z,101720.03
2023-01-29T20:01:12.463Z,101713.75
2023-01-29T20:03:39.496Z,101705.72
2023-01-29T20:06:07.228Z,101706.59
2023-01-29T20:08:36.022Z,101715.50
2023-01-29T20:11:03.170Z,101747.44
2023-01-29T20:13:30.351Z,101738.53
2023-01-29T20:15:57.500Z,101718.06
2023-01-29T20:18:24.412Z,101729.53
2023-01-29T20:20:53.153Z,101727.72
2023-01-29T20:23:36.701Z,101717.88
2023-01-29T20:26:06.219Z,101724.91
2023-01-29T20:28:33.481Z,101708.81
2023-01-29T20:31:00.916Z,101713.22
2023-01-29T20:33:27.946Z,101719.38
2023-01-29T20:36:01.790Z,101717.56
2023-01-29T20:38:31.558Z,101709.56
2023-01-29T20:41:13.800Z,101704.22
2023-01-29T20:43:41.811Z,101694.44
2023-01-29T20:46:09.969Z,101689.88
2023-01-29T20:48:37.446Z,101685.44
2023-01-29T20:51:15.539Z,101693.41
2023-01-29T20:53:46.223Z,101702.34
2023-01-29T20:56:15.550Z,101711.22
2023-01-29T20:58:42.997Z,101717.41
2023-01-29T21:01:12.190Z,101711.19
2023-01-29T21:03:40.190Z,101697.75
2023-01-29T21:06:11.392Z,101696.81
2023-01-29T21:08:39.369Z,101695.00
2023-01-29T21:11:08.138Z,101703.84
2023-01-29T21:13:35.456Z,101707.38
2023-01-29T21:16:02.401Z,101702.03
2023-01-29T21:18:29.335Z,101707.38
2023-01-29T21:20:56.375Z,101707.38
2023-01-29T21:23:23.401Z,101702.88
2023-01-29T21:25:50.306Z,101704.56
2023-01-29T21:28:17.730Z,101700.09
2023-01-29T21:30:44.774Z,101693.84
2023-01-29T21:33:11.632Z,101676.94
2023-01-29T21:35:38.496Z,101684.97
2023-01-29T21:38:05.874Z,101675.16
2023-01-29T21:40:33.004Z,101679.53
2023-01-29T21:43:11.733Z,101677.75
2023-01-29T21:45:40.261Z,101680.44
2023-01-29T21:48:09.019Z,101687.50
2023-01-29T21:50:36.226Z,101696.34
2023-01-29T21:53:03.655Z,101685.59
2023-01-29T21:55:30.702Z,101690.06
2023-01-29T21:57:57.493Z,101690.88
2023-01-29T22:00:24.510Z,101687.19
2023-01-29T22:02:51.510Z,101681.78
2023-01-29T22:05:20.153Z,101694.19
2023-01-29T22:07:49.224Z,101684.28
2023-01-29T22:10:18.874Z,101658.41
2023-01-29T22:12:47.892Z,101658.41
2023-01-29T22:15:15.494Z,101663.66
2023-01-29T22:17:43.892Z,101645.78
2023-01-29T22:20:13.717Z,101629.69
2023-01-29T22:22:40.890Z,101616.34
2023-01-29T22:25:08.840Z,101593.94
2023-01-29T22:27:36.087Z,101567.22
2023-01-29T22:30:03.807Z,101542.22
2023-01-29T22:32:32.861Z,101558.22
2023-01-29T22:34:59.786Z,101557.34
2023-01-29T22:37:26.674Z,101559.13
2023-01-29T22:39:53.537Z,101562.66
2023-01-29T22:42:20.788Z,101604.44
2023-01-29T22:44:48.463Z,101563.53
2023-01-29T22:47:16.017Z,101575.16
2023-01-29T22:49:45.593Z,101577.81
2023-01-29T22:52:12.652Z,101564.41
2023-01-29T22:54:42.496Z,101567.03
2023-01-29T22:57:14.963Z,101565.19
2023-01-29T22:59:41.925Z,101567.81
2023-01-29T23:02:09.567Z,101553.59
2023-01-29T23:04:37.065Z,101549.88
2023-01-29T23:07:04.816Z,101554.22
2023-01-29T23:09:31.812Z,101547.13
2023-01-29T23:11:58.737Z,101515.06
2023-01-29T23:14:25.697Z,101503.44
2023-01-29T23:16:52.709Z,101512.34
2023-01-29T23:19:19.990Z,101507.00
2023-01-29T23:21:46.988Z,101505.19
2023-01-29T23:24:13.987Z,101518.47
2023-01-29T23:26:59.562Z,101507.78
2023-01-29T23:29:26.578Z,101521.00
2023-01-29T23:31:53.562Z,101514.69
2023-01-29T23:34:20.511Z,101511.03
2023-01-29T23:36:47.488Z,101504.66
2023-01-29T23:39:14.717Z,101497.50
2023-01-29T23:41:41.495Z,101496.69
2023-01-29T23:44:08.545Z,101499.34
2023-01-29T23:46:35.798Z,101489.44
2023-01-29T23:49:02.680Z,101487.44
2023-01-29T23:51:29.601Z,101492.63
2023-01-29T23:53:57.750Z,101476.53
2023-01-29T23:56:25.446Z,101471.19
2023-01-29T23:58:54.911Z,101465.84
